sensor_id;sensor_type;location;lat;lon;timestamp;temperature;humidity
55091;DHT22;40985;53.180;5.800;2023-08-06T00:01:50;13.00;99.90
55091;DHT22;40985;53.180;5.800;2023-08-06T00:04:16;13.20;99.90
55091;DHT22;40985;53.180;5.800;2023-08-06T00:06:42;13.00;99.90
55091;DHT22;40985;53.180;5.800;2023-08-06T00:09:07;13.20;99.90
55091;DHT22;40985;53.180;5.800;2023-08-06T00:11:33;13.10;99.90
55091;DHT22;40985;53.180;5.800;2023-08-06T00:13:59;13.10;99.90
55091;DHT22;40985;53.180;5.800;2023-08-06T00:16:25;13.20;99.90
55091;DHT22;40985;53.180;5.800;2023-08-06T00:18:50;13.20;99.90
55091;DHT22;40985;53.180;5.800;2023-08-06T00:21:16;13.10;99.90
55091;DHT22;40985;53.180;5.800;2023-08-06T00:23:42;13.00;99.90
55091;DHT22;40985;53.180;5.800;2023-08-06T00:26:07;13.00;99.90
55091;DHT22;40985;53.180;5.800;2023-08-06T00:28:33;13.10;99.90
55091;DHT22;40985;53.180;5.800;2023-08-06T00:30:59;13.20;99.90
55091;DHT22;40985;53.180;5.800;2023-08-06T00:33:25;13.20;99.90
55091;DHT22;40985;53.180;5.800;2023-08-06T00:35:51;13.10;99.90
55091;DHT22;40985;53.180;5.800;2023-08-06T00:38:16;13.20;99.90
55091;DHT22;40985;53.180;5.800;2023-08-06T00:40:42;13.00;99.90
55091;DHT22;40985;53.180;5.800;2023-08-06T00:43:08;13.20;99.90
55091;DHT22;40985;53.180;5.800;2023-08-06T00:45:35;13.30;99.90
55091;DHT22;40985;53.180;5.800;2023-08-06T00:48:02;13.10;99.90
55091;DHT22;40985;53.180;5.800;2023-08-06T00:50:29;13.20;99.90
55091;DHT22;40985;53.180;5.800;2023-08-06T00:52:55;13.20;99.90
55091;DHT22;40985;53.180;5.800;2023-08-06T00:55:21;13.10;99.90
55091;DHT22;40985;53.180;5.800;2023-08-06T00:57:47;13.10;99.90
55091;DHT22;40985;53.180;5.800;2023-08-06T01:00:13;13.10;99.90
55091;DHT22;40985;53.180;5.800;2023-08-06T01:02:39;13.10;99.90
55091;DHT22;40985;53.180;5.800;2023-08-06T01:05:04;13.30;99.90
55091;DHT22;40985;53.180;5.800;2023-08-06T01:16:03;13.30;99.90
55091;DHT22;40985;53.180;5.800;2023-08-06T01:18:31;13.10;99.90
55091;DHT22;40985;53.180;5.800;2023-08-06T01:20:57;13.20;99.90
55091;DHT22;40985;53.180;5.800;2023-08-06T01:23:23;13.30;99.90
55091;DHT22;40985;53.180;5.800;2023-08-06T01:28:51;13.20;99.90
55091;DHT22;40985;53.180;5.800;2023-08-06T01:31:36;13.20;99.90
55091;DHT22;40985;53.180;5.800;2023-08-06T01:34:03;13.30;99.90
55091;DHT22;40985;53.180;5.800;2023-08-06T01:36:30;13.20;99.90
55091;DHT22;40985;53.180;5.800;2023-08-06T01:38:56;13.20;99.90
55091;DHT22;40985;53.180;5.800;2023-08-06T01:41:22;13.20;99.90
55091;DHT22;40985;53.180;5.800;2023-08-06T01:43:48;13.20;99.90
55091;DHT22;40985;53.180;5.800;2023-08-06T01:46:14;13.30;99.90
55091;DHT22;40985;53.180;5.800;2023-08-06T01:48:39;13.20;99.90
55091;DHT22;40985;53.180;5.800;2023-08-06T01:51:05;13.20;99.90
55091;DHT22;40985;53.180;5.800;2023-08-06T01:53:32;13.10;99.90
55091;DHT22;40985;53.180;5.800;2023-08-06T01:55:57;13.20;99.90
55091;DHT22;40985;53.180;5.800;2023-08-06T01:58:23;13.30;99.90
55091;DHT22;40985;53.180;5.800;2023-08-06T02:00:49;13.20;99.90
55091;DHT22;40985;53.180;5.800;2023-08-06T02:03:15;13.30;99.90
55091;DHT22;40985;53.180;5.800;2023-08-06T02:05:41;13.10;99.90
55091;DHT22;40985;53.180;5.800;2023-08-06T02:08:07;13.10;99.90
55091;DHT22;40985;53.180;5.800;2023-08-06T02:10:33;13.10;99.90
55091;DHT22;40985;53.180;5.800;2023-08-06T02:12:58;13.20;99.90
55091;DHT22;40985;53.180;5.800;2023-08-06T02:15:24;13.30;99.90
55091;DHT22;40985;53.180;5.800;2023-08-06T02:17:50;13.30;99.90
55091;DHT22;40985;53.180;5.800;2023-08-06T02:20:15;13.30;99.90
55091;DHT22;40985;53.180;5.800;2023-08-06T02:22:41;13.30;99.90
55091;DHT22;40985;53.180;5.800;2023-08-06T02:25:07;13.20;99.90
55091;DHT22;40985;53.180;5.800;2023-08-06T02:27:33;13.10;99.90
55091;DHT22;40985;53.180;5.800;2023-08-06T02:29:58;13.00;99.90
55091;DHT22;40985;53.180;5.800;2023-08-06T02:32:24;13.00;99.90
55091;DHT22;40985;53.180;5.800;2023-08-06T02:34:50;13.20;99.90
55091;DHT22;40985;53.180;5.800;2023-08-06T02:37:15;13.10;99.90
55091;DHT22;40985;53.180;5.800;2023-08-06T02:39:41;13.20;99.90
55091;DHT22;40985;53.180;5.800;2023-08-06T02:42:07;13.00;99.90
55091;DHT22;40985;53.180;5.800;2023-08-06T02:44:34;13.20;99.90
55091;DHT22;40985;53.180;5.800;2023-08-06T02:47:00;13.10;99.90
55091;DHT22;40985;53.180;5.800;2023-08-06T02:49:26;13.20;99.90
55091;DHT22;40985;53.180;5.800;2023-08-06T02:51:51;13.20;99.90
55091;DHT22;40985;53.180;5.800;2023-08-06T02:54:18;13.40;99.90
55091;DHT22;40985;53.180;5.800;2023-08-06T02:56:44;13.10;99.90
55091;DHT22;40985;53.180;5.800;2023-08-06T02:59:11;13.30;99.90
55091;DHT22;40985;53.180;5.800;2023-08-06T03:01:37;13.30;99.90
55091;DHT22;40985;53.180;5.800;2023-08-06T03:04:02;13.30;99.90
55091;DHT22;40985;53.180;5.800;2023-08-06T03:06:28;13.20;99.90
55091;DHT22;40985;53.180;5.800;2023-08-06T03:08:54;13.30;99.90
55091;DHT22;40985;53.180;5.800;2023-08-06T03:11:20;13.20;99.90
55091;DHT22;40985;53.180;5.800;2023-08-06T03:13:49;13.20;99.90
55091;DHT22;40985;53.180;5.800;2023-08-06T03:16:15;13.40;99.90
55091;DHT22;40985;53.180;5.800;2023-08-06T03:18:41;13.50;99.90
55091;DHT22;40985;53.180;5.800;2023-08-06T03:21:06;13.40;99.90
55091;DHT22;40985;53.180;5.800;2023-08-06T03:23:32;13.40;99.90
55091;DHT22;40985;53.180;5.800;2023-08-06T03:26:02;13.20;99.90
55091;DHT22;40985;53.180;5.800;2023-08-06T03:28:28;13.20;99.90
55091;DHT22;40985;53.180;5.800;2023-08-06T03:31:02;13.20;99.90
55091;DHT22;40985;53.180;5.800;2023-08-06T03:33:27;13.30;99.90
55091;DHT22;40985;53.180;5.800;2023-08-06T03:35:53;13.30;99.90
55091;DHT22;40985;53.180;5.800;2023-08-06T03:38:19;13.20;99.90
55091;DHT22;40985;53.180;5.800;2023-08-06T03:40:45;13.20;99.90
55091;DHT22;40985;53.180;5.800;2023-08-06T03:43:11;13.30;99.90
55091;DHT22;40985;53.180;5.800;2023-08-06T03:45:37;13.30;99.90
55091;DHT22;40985;53.180;5.800;2023-08-06T03:48:03;13.10;99.90
55091;DHT22;40985;53.180;5.800;2023-08-06T03:50:28;13.30;99.90
55091;DHT22;40985;53.180;5.800;2023-08-06T03:52:54;13.30;99.90
55091;DHT22;40985;53.180;5.800;2023-08-06T03:55:20;13.10;99.90
55091;DHT22;40985;53.180;5.800;2023-08-06T03:57:45;13.30;99.90
55091;DHT22;40985;53.180;5.800;2023-08-06T04:00:11;13.10;99.90
55091;DHT22;40985;53.180;5.800;2023-08-06T04:02:38;13.30;99.90
55091;DHT22;40985;53.180;5.800;2023-08-06T04:05:03;13.20;99.90
55091;DHT22;40985;53.180;5.800;2023-08-06T04:07:29;13.40;99.90
55091;DHT22;40985;53.180;5.800;2023-08-06T04:09:58;13.30;99.90
55091;DHT22;40985;53.180;5.800;2023-08-06T04:12:25;13.20;99.90
55091;DHT22;40985;53.180;5.800;2023-08-06T04:14:52;13.40;99.90
55091;DHT22;40985;53.180;5.800;2023-08-06T04:17:19;13.30;99.90
55091;DHT22;40985;53.180;5.800;2023-08-06T04:19:49;13.20;99.90
55091;DHT22;40985;53.180;5.800;2023-08-06T04:22:15;13.10;99.90
55091;DHT22;40985;53.180;5.800;2023-08-06T04:24:42;13.00;99.90
55091;DHT22;40985;53.180;5.800;2023-08-06T04:27:09;13.20;99.90
55091;DHT22;40985;53.180;5.800;2023-08-06T04:29:34;13.00;99.90
55091;DHT22;40985;53.180;5.800;2023-08-06T04:32:00;13.00;99.90
55091;DHT22;40985;53.180;5.800;2023-08-06T04:34:26;13.10;99.90
55091;DHT22;40985;53.180;5.800;2023-08-06T04:36:51;13.20;99.90
55091;DHT22;40985;53.180;5.800;2023-08-06T04:39:17;13.10;99.90
55091;DHT22;40985;53.180;5.800;2023-08-06T04:41:43;13.30;99.90
55091;DHT22;40985;53.180;5.800;2023-08-06T04:44:08;13.20;99.90
55091;DHT22;40985;53.180;5.800;2023-08-06T04:46:34;13.20;99.90
55091;DHT22;40985;53.180;5.800;2023-08-06T04:49:00;13.10;99.90
55091;DHT22;40985;53.180;5.800;2023-08-06T04:51:25;13.20;99.90
55091;DHT22;40985;53.180;5.800;2023-08-06T04:53:51;13.30;99.90
55091;DHT22;40985;53.180;5.800;2023-08-06T04:56:17;13.50;99.90
55091;DHT22;40985;53.180;5.800;2023-08-06T04:58:42;13.30;99.90
55091;DHT22;40985;53.180;5.800;2023-08-06T05:01:08;13.40;99.90
55091;DHT22;40985;53.180;5.800;2023-08-06T05:03:33;13.30;99.90
55091;DHT22;40985;53.180;5.800;2023-08-06T05:05:59;13.60;99.90
55091;DHT22;40985;53.180;5.800;2023-08-06T05:08:25;13.60;99.90
55091;DHT22;40985;53.180;5.800;2023-08-06T05:10:50;13.50;99.90
55091;DHT22;40985;53.180;5.800;2023-08-06T05:13:16;13.50;99.90
55091;DHT22;40985;53.180;5.800;2023-08-06T05:15:42;13.60;99.90
55091;DHT22;40985;53.180;5.800;2023-08-06T05:18:08;13.40;99.90
55091;DHT22;40985;53.180;5.800;2023-08-06T05:20:39;13.70;99.90
55091;DHT22;40985;53.180;5.800;2023-08-06T05:23:05;13.50;99.90
55091;DHT22;40985;53.180;5.800;2023-08-06T05:25:30;13.60;99.90
55091;DHT22;40985;53.180;5.800;2023-08-06T05:27:56;13.50;99.90
55091;DHT22;40985;53.180;5.800;2023-08-06T05:30:22;13.50;99.90
55091;DHT22;40985;53.180;5.800;2023-08-06T05:32:47;13.80;99.90
55091;DHT22;40985;53.180;5.800;2023-08-06T05:35:13;13.80;99.90
55091;DHT22;40985;53.180;5.800;2023-08-06T05:37:39;13.90;99.90
55091;DHT22;40985;53.180;5.800;2023-08-06T05:40:04;13.90;99.90
55091;DHT22;40985;53.180;5.800;2023-08-06T05:42:30;13.80;99.90
55091;DHT22;40985;53.180;5.800;2023-08-06T05:44:56;13.90;99.90
55091;DHT22;40985;53.180;5.800;2023-08-06T05:47:22;14.00;99.90
55091;DHT22;40985;53.180;5.800;2023-08-06T05:49:47;14.00;99.90
55091;DHT22;40985;53.180;5.800;2023-08-06T05:52:13;14.10;99.90
55091;DHT22;40985;53.180;5.800;2023-08-06T05:54:39;14.20;99.90
55091;DHT22;40985;53.180;5.800;2023-08-06T05:57:06;14.00;99.90
55091;DHT22;40985;53.180;5.800;2023-08-06T05:59:32;14.00;99.90
55091;DHT22;40985;53.180;5.800;2023-08-06T06:01:57;14.30;99.90
55091;DHT22;40985;53.180;5.800;2023-08-06T06:04:24;14.30;99.90
55091;DHT22;40985;53.180;5.800;2023-08-06T06:06:50;14.40;99.90
55091;DHT22;40985;53.180;5.800;2023-08-06T06:09:15;14.30;99.90
55091;DHT22;40985;53.180;5.800;2023-08-06T06:11:41;14.40;99.90
55091;DHT22;40985;53.180;5.800;2023-08-06T06:14:07;14.40;99.90
55091;DHT22;40985;53.180;5.800;2023-08-06T06:16:33;14.30;99.90
55091;DHT22;40985;53.180;5.800;2023-08-06T06:18:59;14.60;99.90
55091;DHT22;40985;53.180;5.800;2023-08-06T06:21:24;14.40;99.90
55091;DHT22;40985;53.180;5.800;2023-08-06T06:23:50;14.50;99.90
55091;DHT22;40985;53.180;5.800;2023-08-06T06:26:18;14.50;99.90
55091;DHT22;40985;53.180;5.800;2023-08-06T06:28:43;14.70;99.90
55091;DHT22;40985;53.180;5.800;2023-08-06T06:31:09;14.70;99.90
55091;DHT22;40985;53.180;5.800;2023-08-06T06:33:35;14.60;99.90
55091;DHT22;40985;53.180;5.800;2023-08-06T06:36:00;14.80;99.90
55091;DHT22;40985;53.180;5.800;2023-08-06T06:38:29;14.80;99.90
55091;DHT22;40985;53.180;5.800;2023-08-06T06:40:57;15.00;99.90
55091;DHT22;40985;53.180;5.800;2023-08-06T06:43:23;15.00;99.90
55091;DHT22;40985;53.180;5.800;2023-08-06T06:45:53;15.30;99.90
55091;DHT22;40985;53.180;5.800;2023-08-06T06:48:19;15.30;99.90
55091;DHT22;40985;53.180;5.800;2023-08-06T06:50:47;15.30;99.90
55091;DHT22;40985;53.180;5.800;2023-08-06T06:53:13;15.30;99.90
55091;DHT22;40985;53.180;5.800;2023-08-06T06:55:39;15.50;99.90
55091;DHT22;40985;53.180;5.800;2023-08-06T06:58:05;15.50;99.90
55091;DHT22;40985;53.180;5.800;2023-08-06T07:00:30;15.50;99.90
55091;DHT22;40985;53.180;5.800;2023-08-06T07:02:56;15.30;99.90
55091;DHT22;40985;53.180;5.800;2023-08-06T07:05:22;15.30;99.90
55091;DHT22;40985;53.180;5.800;2023-08-06T07:07:47;15.30;99.90
55091;DHT22;40985;53.180;5.800;2023-08-06T07:10:13;15.20;99.90
55091;DHT22;40985;53.180;5.800;2023-08-06T07:12:39;15.40;99.90
55091;DHT22;40985;53.180;5.800;2023-08-06T07:15:06;15.30;99.90
55091;DHT22;40985;53.180;5.800;2023-08-06T07:17:32;15.30;99.90
55091;DHT22;40985;53.180;5.800;2023-08-06T07:19:58;15.30;99.90
55091;DHT22;40985;53.180;5.800;2023-08-06T07:22:23;15.40;99.90
55091;DHT22;40985;53.180;5.800;2023-08-06T07:24:49;15.40;99.90
55091;DHT22;40985;53.180;5.800;2023-08-06T07:27:15;15.40;99.90
55091;DHT22;40985;53.180;5.800;2023-08-06T07:29:40;15.50;99.90
55091;DHT22;40985;53.180;5.800;2023-08-06T07:32:07;15.60;99.90
55091;DHT22;40985;53.180;5.800;2023-08-06T07:34:33;15.70;99.90
55091;DHT22;40985;53.180;5.800;2023-08-06T07:36:58;15.70;99.90
55091;DHT22;40985;53.180;5.800;2023-08-06T07:39:25;15.90;99.90
55091;DHT22;40985;53.180;5.800;2023-08-06T07:41:50;16.00;99.90
55091;DHT22;40985;53.180;5.800;2023-08-06T07:44:16;16.20;99.90
55091;DHT22;40985;53.180;5.800;2023-08-06T07:46:42;16.20;99.90
55091;DHT22;40985;53.180;5.800;2023-08-06T07:49:09;16.30;99.90
55091;DHT22;40985;53.180;5.800;2023-08-06T07:51:36;16.40;99.90
55091;DHT22;40985;53.180;5.800;2023-08-06T07:54:02;16.40;99.90
55091;DHT22;40985;53.180;5.800;2023-08-06T07:56:29;16.50;99.90
55091;DHT22;40985;53.180;5.800;2023-08-06T07:58:54;16.70;99.90
55091;DHT22;40985;53.180;5.800;2023-08-06T08:01:20;16.60;99.90
55091;DHT22;40985;53.180;5.800;2023-08-06T08:03:45;16.70;99.90
55091;DHT22;40985;53.180;5.800;2023-08-06T08:06:11;16.80;99.90
55091;DHT22;40985;53.180;5.800;2023-08-06T08:08:37;16.90;99.90
55091;DHT22;40985;53.180;5.800;2023-08-06T08:11:05;16.90;99.90
55091;DHT22;40985;53.180;5.800;2023-08-06T08:13:30;16.90;99.90
55091;DHT22;40985;53.180;5.800;2023-08-06T08:15:58;16.80;99.90
55091;DHT22;40985;53.180;5.800;2023-08-06T08:18:24;16.90;99.90
55091;DHT22;40985;53.180;5.800;2023-08-06T08:20:50;17.10;99.90
55091;DHT22;40985;53.180;5.800;2023-08-06T08:23:16;17.10;99.90
55091;DHT22;40985;53.180;5.800;2023-08-06T08:25:41;17.20;99.90
55091;DHT22;40985;53.180;5.800;2023-08-06T08:28:07;17.30;99.90
55091;DHT22;40985;53.180;5.800;2023-08-06T08:30:33;17.30;99.90
55091;DHT22;40985;53.180;5.800;2023-08-06T08:32:59;17.50;99.90
55091;DHT22;40985;53.180;5.800;2023-08-06T08:35:25;17.40;99.90
55091;DHT22;40985;53.180;5.800;2023-08-06T08:37:50;17.50;99.90
55091;DHT22;40985;53.180;5.800;2023-08-06T08:40:17;17.60;99.90
55091;DHT22;40985;53.180;5.800;2023-08-06T08:42:43;17.70;99.90
55091;DHT22;40985;53.180;5.800;2023-08-06T08:45:13;17.80;99.90
55091;DHT22;40985;53.180;5.800;2023-08-06T08:47:42;17.80;99.90
55091;DHT22;40985;53.180;5.800;2023-08-06T08:50:12;17.80;99.90
55091;DHT22;40985;53.180;5.800;2023-08-06T08:52:39;17.90;99.90
55091;DHT22;40985;53.180;5.800;2023-08-06T08:55:08;17.90;99.90
55091;DHT22;40985;53.180;5.800;2023-08-06T08:57:34;17.90;99.90
55091;DHT22;40985;53.180;5.800;2023-08-06T09:00:00;17.90;99.90
55091;DHT22;40985;53.180;5.800;2023-08-06T09:02:28;17.90;99.90
55091;DHT22;40985;53.180;5.800;2023-08-06T09:05:01;18.00;99.90
55091;DHT22;40985;53.180;5.800;2023-08-06T09:07:35;18.10;99.90
55091;DHT22;40985;53.180;5.800;2023-08-06T09:10:02;18.10;99.90
55091;DHT22;40985;53.180;5.800;2023-08-06T09:12:31;18.10;99.90
55091;DHT22;40985;53.180;5.800;2023-08-06T09:14:57;18.10;99.90
55091;DHT22;40985;53.180;5.800;2023-08-06T09:17:23;18.00;99.90
55091;DHT22;40985;53.180;5.800;2023-08-06T09:19:49;18.10;99.90
55091;DHT22;40985;53.180;5.800;2023-08-06T09:22:15;18.20;99.90
55091;DHT22;40985;53.180;5.800;2023-08-06T09:24:41;18.30;99.90
55091;DHT22;40985;53.180;5.800;2023-08-06T09:27:14;18.40;99.90
55091;DHT22;40985;53.180;5.800;2023-08-06T09:29:40;18.30;99.90
55091;DHT22;40985;53.180;5.800;2023-08-06T09:32:06;18.30;99.90
55091;DHT22;40985;53.180;5.800;2023-08-06T09:34:31;18.50;99.90
55091;DHT22;40985;53.180;5.800;2023-08-06T09:36:57;18.50;99.90
55091;DHT22;40985;53.180;5.800;2023-08-06T09:39:30;18.60;99.90
55091;DHT22;40985;53.180;5.800;2023-08-06T09:42:01;18.60;99.90
55091;DHT22;40985;53.180;5.800;2023-08-06T09:44:28;18.50;99.90
55091;DHT22;40985;53.180;5.800;2023-08-06T09:46:56;18.50;99.90
55091;DHT22;40985;53.180;5.800;2023-08-06T09:49:26;18.40;99.90
55091;DHT22;40985;53.180;5.800;2023-08-06T09:51:53;18.40;99.90
55091;DHT22;40985;53.180;5.800;2023-08-06T09:54:22;18.30;99.90
55091;DHT22;40985;53.180;5.800;2023-08-06T09:56:48;18.30;99.90
55091;DHT22;40985;53.180;5.800;2023-08-06T09:59:15;18.40;99.90
55091;DHT22;40985;53.180;5.800;2023-08-06T10:01:43;18.40;99.90
55091;DHT22;40985;53.180;5.800;2023-08-06T10:04:10;18.40;99.90
55091;DHT22;40985;53.180;5.800;2023-08-06T10:06:38;18.50;99.90
55091;DHT22;40985;53.180;5.800;2023-08-06T10:09:04;18.50;99.90
55091;DHT22;40985;53.180;5.800;2023-08-06T10:11:30;18.40;99.90
55091;DHT22;40985;53.180;5.800;2023-08-06T10:14:20;18.40;99.90
55091;DHT22;40985;53.180;5.800;2023-08-06T10:16:47;18.50;99.90
55091;DHT22;40985;53.180;5.800;2023-08-06T10:19:14;18.50;99.90
55091;DHT22;40985;53.180;5.800;2023-08-06T10:21:41;18.30;99.90
55091;DHT22;40985;53.180;5.800;2023-08-06T10:24:09;18.20;99.90
55091;DHT22;40985;53.180;5.800;2023-08-06T10:26:40;18.10;99.90
55091;DHT22;40985;53.180;5.800;2023-08-06T10:29:35;17.90;99.90
55091;DHT22;40985;53.180;5.800;2023-08-06T10:32:00;17.90;99.90
55091;DHT22;40985;53.180;5.800;2023-08-06T10:37:22;18.00;99.90
55091;DHT22;40985;53.180;5.800;2023-08-06T10:39:52;18.20;99.90
55091;DHT22;40985;53.180;5.800;2023-08-06T10:42:36;18.50;99.90
55091;DHT22;40985;53.180;5.800;2023-08-06T10:47:41;18.70;99.90
55091;DHT22;40985;53.180;5.800;2023-08-06T10:50:10;18.60;99.90
55091;DHT22;40985;53.180;5.800;2023-08-06T10:52:36;18.60;99.90
55091;DHT22;40985;53.180;5.800;2023-08-06T10:55:02;18.50;99.90
55091;DHT22;40985;53.180;5.800;2023-08-06T10:57:27;18.40;99.90
55091;DHT22;40985;53.180;5.800;2023-08-06T10:59:53;18.20;99.90
55091;DHT22;40985;53.180;5.800;2023-08-06T11:02:19;18.10;99.90
55091;DHT22;40985;53.180;5.800;2023-08-06T11:04:44;18.10;99.90
55091;DHT22;40985;53.180;5.800;2023-08-06T11:07:10;17.90;99.90
55091;DHT22;40985;53.180;5.800;2023-08-06T11:09:37;18.00;99.90
55091;DHT22;40985;53.180;5.800;2023-08-06T11:12:05;18.00;99.90
55091;DHT22;40985;53.180;5.800;2023-08-06T11:14:32;18.00;99.90
55091;DHT22;40985;53.180;5.800;2023-08-06T11:16:57;18.00;99.90
55091;DHT22;40985;53.180;5.800;2023-08-06T11:19:23;18.00;99.90
55091;DHT22;40985;53.180;5.800;2023-08-06T11:21:51;18.00;99.90
55091;DHT22;40985;53.180;5.800;2023-08-06T11:24:17;18.10;99.90
55091;DHT22;40985;53.180;5.800;2023-08-06T11:26:43;18.00;99.90
55091;DHT22;40985;53.180;5.800;2023-08-06T11:29:10;18.10;99.90
55091;DHT22;40985;53.180;5.800;2023-08-06T11:31:36;18.10;99.90
55091;DHT22;40985;53.180;5.800;2023-08-06T11:34:02;18.10;99.90
55091;DHT22;40985;53.180;5.800;2023-08-06T11:36:34;18.20;99.90
55091;DHT22;40985;53.180;5.800;2023-08-06T11:39:03;18.20;99.90
55091;DHT22;40985;53.180;5.800;2023-08-06T11:41:33;18.10;99.90
55091;DHT22;40985;53.180;5.800;2023-08-06T11:44:01;18.10;99.90
55091;DHT22;40985;53.180;5.800;2023-08-06T11:46:27;18.10;99.90
55091;DHT22;40985;53.180;5.800;2023-08-06T11:48:57;18.10;99.90
55091;DHT22;40985;53.180;5.800;2023-08-06T11:51:26;18.20;99.90
55091;DHT22;40985;53.180;5.800;2023-08-06T11:53:58;18.30;99.90
55091;DHT22;40985;53.180;5.800;2023-08-06T11:56:25;18.40;99.90
55091;DHT22;40985;53.180;5.800;2023-08-06T11:58:51;18.40;99.90
55091;DHT22;40985;53.180;5.800;2023-08-06T12:01:18;18.40;99.90
55091;DHT22;40985;53.180;5.800;2023-08-06T12:03:43;18.40;99.90
55091;DHT22;40985;53.180;5.800;2023-08-06T12:06:09;18.40;99.90
55091;DHT22;40985;53.180;5.800;2023-08-06T12:08:35;18.50;99.90
55091;DHT22;40985;53.180;5.800;2023-08-06T12:11:01;18.30;99.90
55091;DHT22;40985;53.180;5.800;2023-08-06T12:13:26;18.30;99.90
55091;DHT22;40985;53.180;5.800;2023-08-06T12:15:54;18.20;99.90
55091;DHT22;40985;53.180;5.800;2023-08-06T12:18:19;18.30;99.90
55091;DHT22;40985;53.180;5.800;2023-08-06T12:20:45;18.20;99.90
55091;DHT22;40985;53.180;5.800;2023-08-06T12:23:11;18.20;99.90
55091;DHT22;40985;53.180;5.800;2023-08-06T12:25:41;18.20;99.90
55091;DHT22;40985;53.180;5.800;2023-08-06T12:28:06;18.10;99.90
55091;DHT22;40985;53.180;5.800;2023-08-06T12:30:34;18.20;99.90
55091;DHT22;40985;53.180;5.800;2023-08-06T12:32:59;18.30;99.90
55091;DHT22;40985;53.180;5.800;2023-08-06T12:35:25;18.50;99.90
55091;DHT22;40985;53.180;5.800;2023-08-06T12:37:51;18.40;99.90
55091;DHT22;40985;53.180;5.800;2023-08-06T12:40:24;18.40;99.90
55091;DHT22;40985;53.180;5.800;2023-08-06T12:42:53;18.30;99.90
55091;DHT22;40985;53.180;5.800;2023-08-06T12:45:19;18.50;99.90
55091;DHT22;40985;53.180;5.800;2023-08-06T12:47:46;18.50;99.90
55091;DHT22;40985;53.180;5.800;2023-08-06T12:50:12;18.50;99.90
55091;DHT22;40985;53.180;5.800;2023-08-06T12:52:38;18.50;99.90
55091;DHT22;40985;53.180;5.800;2023-08-06T12:55:04;18.60;99.90
55091;DHT22;40985;53.180;5.800;2023-08-06T12:57:29;18.70;99.90
55091;DHT22;40985;53.180;5.800;2023-08-06T12:59:56;18.70;99.90
55091;DHT22;40985;53.180;5.800;2023-08-06T13:02:21;18.80;99.90
55091;DHT22;40985;53.180;5.800;2023-08-06T13:04:47;18.80;99.90
55091;DHT22;40985;53.180;5.800;2023-08-06T13:07:13;18.70;99.90
55091;DHT22;40985;53.180;5.800;2023-08-06T13:09:38;18.80;99.90
55091;DHT22;40985;53.180;5.800;2023-08-06T13:12:04;18.80;99.90
55091;DHT22;40985;53.180;5.800;2023-08-06T13:14:31;18.90;99.90
55091;DHT22;40985;53.180;5.800;2023-08-06T13:16:57;19.00;99.90
55091;DHT22;40985;53.180;5.800;2023-08-06T13:19:23;19.00;99.90
55091;DHT22;40985;53.180;5.800;2023-08-06T13:24:15;18.90;99.90
55091;DHT22;40985;53.180;5.800;2023-08-06T13:26:41;18.70;99.90
55091;DHT22;40985;53.180;5.800;2023-08-06T13:29:07;18.50;99.90
55091;DHT22;40985;53.180;5.800;2023-08-06T13:31:33;18.40;99.90
55091;DHT22;40985;53.180;5.800;2023-08-06T13:33:58;18.30;99.90
55091;DHT22;40985;53.180;5.800;2023-08-06T13:36:28;18.20;99.90
55091;DHT22;40985;53.180;5.800;2023-08-06T13:38:54;18.10;99.90
55091;DHT22;40985;53.180;5.800;2023-08-06T13:41:20;18.00;99.90
55091;DHT22;40985;53.180;5.800;2023-08-06T13:43:45;17.90;99.90
55091;DHT22;40985;53.180;5.800;2023-08-06T13:46:11;17.80;99.90
55091;DHT22;40985;53.180;5.800;2023-08-06T13:48:45;17.70;99.90
55091;DHT22;40985;53.180;5.800;2023-08-06T13:51:12;17.70;99.90
55091;DHT22;40985;53.180;5.800;2023-08-06T13:53:41;17.60;99.90
55091;DHT22;40985;53.180;5.800;2023-08-06T13:56:08;17.60;99.90
55091;DHT22;40985;53.180;5.800;2023-08-06T13:58:35;17.60;99.90
55091;DHT22;40985;53.180;5.800;2023-08-06T14:01:01;17.40;99.90
55091;DHT22;40985;53.180;5.800;2023-08-06T14:03:27;17.30;99.90
55091;DHT22;40985;53.180;5.800;2023-08-06T14:05:52;17.30;99.90
55091;DHT22;40985;53.180;5.800;2023-08-06T14:08:20;17.30;99.90
55091;DHT22;40985;53.180;5.800;2023-08-06T14:10:46;17.30;99.90
55091;DHT22;40985;53.180;5.800;2023-08-06T14:13:12;17.40;99.90
55091;DHT22;40985;53.180;5.800;2023-08-06T14:15:38;17.50;99.90
55091;DHT22;40985;53.180;5.800;2023-08-06T14:18:07;17.50;99.90
55091;DHT22;40985;53.180;5.800;2023-08-06T14:20:36;17.50;99.90
55091;DHT22;40985;53.180;5.800;2023-08-06T14:23:02;17.50;99.90
55091;DHT22;40985;53.180;5.800;2023-08-06T14:25:28;17.50;99.90
55091;DHT22;40985;53.180;5.800;2023-08-06T14:27:53;17.70;99.90
55091;DHT22;40985;53.180;5.800;2023-08-06T14:30:19;17.80;99.90
55091;DHT22;40985;53.180;5.800;2023-08-06T14:32:45;17.90;99.90
55091;DHT22;40985;53.180;5.800;2023-08-06T14:35:11;18.00;99.90
55091;DHT22;40985;53.180;5.800;2023-08-06T14:37:36;17.90;99.90
55091;DHT22;40985;53.180;5.800;2023-08-06T14:40:02;18.10;99.90
55091;DHT22;40985;53.180;5.800;2023-08-06T14:42:28;18.10;99.90
55091;DHT22;40985;53.180;5.800;2023-08-06T14:44:54;18.10;99.90
55091;DHT22;40985;53.180;5.800;2023-08-06T14:47:19;18.30;99.90
55091;DHT22;40985;53.180;5.800;2023-08-06T14:49:45;18.60;99.90
55091;DHT22;40985;53.180;5.800;2023-08-06T14:52:11;18.80;99.90
55091;DHT22;40985;53.180;5.800;2023-08-06T14:54:36;18.70;99.90
55091;DHT22;40985;53.180;5.800;2023-08-06T14:57:02;18.70;99.90
55091;DHT22;40985;53.180;5.800;2023-08-06T14:59:28;18.40;99.90
55091;DHT22;40985;53.180;5.800;2023-08-06T15:01:54;18.20;99.90
55091;DHT22;40985;53.180;5.800;2023-08-06T15:04:19;18.30;99.90
55091;DHT22;40985;53.180;5.800;2023-08-06T15:06:45;18.20;99.90
55091;DHT22;40985;53.180;5.800;2023-08-06T15:09:11;18.20;99.90
55091;DHT22;40985;53.180;5.800;2023-08-06T15:11:37;18.00;99.90
55091;DHT22;40985;53.180;5.800;2023-08-06T15:14:03;18.10;99.90
55091;DHT22;40985;53.180;5.800;2023-08-06T15:16:30;18.00;99.90
55091;DHT22;40985;53.180;5.800;2023-08-06T15:18:56;18.10;99.90
55091;DHT22;40985;53.180;5.800;2023-08-06T15:21:22;18.10;99.90
55091;DHT22;40985;53.180;5.800;2023-08-06T15:23:47;18.00;99.90
55091;DHT22;40985;53.180;5.800;2023-08-06T15:26:13;18.00;99.90
55091;DHT22;40985;53.180;5.800;2023-08-06T15:28:39;17.90;99.90
55091;DHT22;40985;53.180;5.800;2023-08-06T15:31:04;17.80;99.90
55091;DHT22;40985;53.180;5.800;2023-08-06T15:33:33;17.80;99.90
55091;DHT22;40985;53.180;5.800;2023-08-06T15:35:59;17.80;99.90
55091;DHT22;40985;53.180;5.800;2023-08-06T15:38:25;17.70;99.90
55091;DHT22;40985;53.180;5.800;2023-08-06T15:40:50;17.70;99.90
55091;DHT22;40985;53.180;5.800;2023-08-06T15:43:16;17.70;99.90
55091;DHT22;40985;53.180;5.800;2023-08-06T15:45:42;17.60;99.90